Main page
METAR-TAF:

METAR-TAF

Airports :

Wittering, England

RAF Wittering

latitude: 52-37N, longitude: 000-28W, elevation: 84 m

Current weather observation

The report was made 1 hour and 22 minutes ago, at 00:50 UTC
Wind 14 kt from the West
Temperature 11°C
Humidity 94%
Pressure 993 hPa
Visibility 10 km or more

METAR: EGXT 290050Z AUTO 28014KT 9999 OVC008/// 11/10 Q0993

Time: 03:12 (02:12 UTC)

Forecast

The report was made 18 hours and 22 minutes ago, at 07:50 UTC
Forecast valid from 28 at 09 UTC to 28 at 18 UTC
Wind 12 kt from the North/Northeast
Visibility: 8000 m
Broken clouds at a height of 300 ft
light rain
Becoming
from 28 at 09 UTC to 28 at 12 UTC
Wind 17 kt from the North with gusts up to 27 kt
Broken clouds at a height of 800 ft
Temporary
from 28 at 09 UTC to 28 at 18 UTC
Visibility: 7000 m
light rain, drizzle

TAF: EGXT 280750Z 2809/2818 03012KT 8000 -RA BKN003 BECMG 2809/2812 36017G27KT BKN008 TEMPO 2809/2818 7000 -RADZ

Weather observations and forecasts of more than 4000 airports (METAR and TAF reports).

The available stations are represented by yellow and red dots on the map.

Hover mouse over dot to see the name of the station.

Then click to see weather observations and forecasts.

To change the map : click on the green buttons with a black cross to zoom in, on the green button with a dash to zoom out, or on the green arrows for adjacent maps.


METAR-TAF: